Bryce, UT

12:22 AM MDT on May 05, 2015 (GMT -0600)
Bryce Canyon | | Change Station
CLOSE
Current Station
Airport
Location: Bryce Canyon,
Elevation: 7585 ft
Nearby Weather Stations

Elev 7585 ft 37.71 °N, 112.15 °W | Updated 29 minutes ago

Overcast
Overcast
44 °F
Feels Like 42 °F
N
5
Wind Variable Wind from WNW

Today
High -- | Low -- °F
--% Chance of Precip.
Yesterday
High -- | Low -- °F
Precip. -- in
6:28 AM 8:22 PM
Full, 99% visible
Pressure 29.78 in
Visibility 10.0 miles
Clouds Mostly Cloudy 4000 ft
Mostly Cloudy 4900 ft
Overcast 6000 ft
Windchill 42 °F
Dew Point 41 °F
Humidity 89%
Rainfall 0.16 in
Snow Depth Not available.
UV 0 out of 12
Pollen 7.00 out of 12
Air Quality Not available.
Flu Activity Regional
METAR KBCE 050553Z AUTO 30004KT 10SM -RA BKN040 BKN049 OVC060 07/05 A3003 RMK AO2 SLP084 P0003 60006 T00670050 10089 20067 50002

More Conditions Fewer Conditions

Pressure 29.78 in
Visibility 10.0 miles
Clouds Mostly Cloudy 4000 ft
Mostly Cloudy 4900 ft
Overcast 6000 ft
Windchill 42 °F
Dew Point 41 °F
Humidity 89%
Rainfall 0.16 in
Snow Depth Not available.
UV 0 out of 12
Pollen 7.00 out of 12
Air Quality Not available.
Flu Activity Regional
METAR KBCE 050553Z AUTO 30004KT 10SM -RA BKN040 BKN049 OVC060 07/05 A3003 RMK AO2 SLP084 P0003 60006 T00670050 10089 20067 50002

More Conditions Fewer Conditions

Nepal has a long way to go to dig out and rebuild from a devastating earthquake. We have teamed up with several charities and organizations to make contributing to the relief effort as easy as possible.
How you can help: Portlight Strategies | Red Cross

10-Day Weather Forecast

Almanac

Astronomy

May. 05, 2015 Rise Set
Actual Time
Civil Twilight
Nautical Twilight
Astronomical Twilight
Moon
Length of Visible Light
Length of Day
Tomorrow will be .
, % of the Moon is Illuminated

Today's Extremes

State Highs State Lows

Community

WunderPhotos

Upload Photos

1,818,814 photos uploaded!

WunderBlogs® & News

Nearby

Air Quality

  Air Quality AQ Index Pollutant
Not available.

Snow Depth

Station Depth Elevation

Earthquake Activity

City Distance Mag. Time & Date
Minimum magnitude displayed is 2.5.

Coastal Water Temperatures

Place Temperature

Stations

Nearby Weather Stations

Station Location Temp. Windchill Dew Point Humidity Wind Precip. Elev Updated Type